createdAt,value
2022-12-23T00:01:17.469Z,-26.77
2022-12-23T00:04:20.576Z,-26.82
2022-12-23T00:07:23.749Z,-27.02
2022-12-23T00:10:26.543Z,-27.18
2022-12-23T00:13:48.068Z,-27.23
2022-12-23T00:16:51.978Z,-27.23
2022-12-23T00:19:55.094Z,-27.54
2022-12-23T00:23:06.857Z,-28.06
2022-12-23T00:26:16.078Z,-28.47
2022-12-23T00:29:19.238Z,-28.30
2022-12-23T00:32:22.385Z,-28.14
2022-12-23T00:35:25.490Z,-28.13
2022-12-23T00:38:47.324Z,-27.85
2022-12-23T00:42:08.681Z,-27.61
2022-12-23T00:45:17.787Z,-27.44
2022-12-23T00:48:39.493Z,-27.36
2022-12-23T00:51:42.697Z,-27.26
2022-12-23T00:54:46.113Z,-27.23
2022-12-23T00:57:49.576Z,-27.20
2022-12-23T01:01:12.772Z,-27.17
2022-12-23T01:04:35.667Z,-27.08
2022-12-23T01:07:38.913Z,-27.03
2022-12-23T01:10:42.113Z,-26.87
2022-12-23T01:13:45.205Z,-26.68
2022-12-23T01:16:48.413Z,-26.64
2022-12-23T01:19:52.221Z,-26.65
2022-12-23T01:22:55.385Z,-26.64
2022-12-23T01:26:00.478Z,-26.76
2022-12-23T01:29:03.690Z,-26.92
2022-12-23T01:32:06.519Z,-26.74
2022-12-23T01:35:09.737Z,-26.52
2022-12-23T01:38:13.179Z,-26.40
2022-12-23T01:41:46.892Z,-26.26
2022-12-23T01:44:51.955Z,-26.06
2022-12-23T01:48:10.829Z,-25.94
2022-12-23T01:51:23.971Z,-25.84
2022-12-23T01:54:27.419Z,-25.70
2022-12-23T01:57:31.102Z,-25.62
2022-12-23T02:00:52.400Z,-25.58
2022-12-23T02:04:00.252Z,-25.50
2022-12-23T02:07:22.442Z,-25.43
2022-12-23T02:10:34.470Z,-25.41
2022-12-23T02:14:12.214Z,-25.27
2022-12-23T02:17:47.723Z,-25.09
2022-12-23T02:21:08.589Z,-24.88
2022-12-23T02:24:57.119Z,-24.73
2022-12-23T02:28:42.165Z,-24.57
2022-12-23T02:32:03.219Z,-24.48
2022-12-23T02:35:09.079Z,-24.51
2022-12-23T02:38:12.186Z,-24.53
2022-12-23T02:41:29.244Z,-24.53
2022-12-23T02:44:42.743Z,-24.43
2022-12-23T02:47:49.999Z,-24.36
2022-12-23T02:50:55.620Z,-24.26
2022-12-23T02:54:03.208Z,-24.19
2022-12-23T02:57:08.762Z,-24.16
2022-12-23T03:00:13.364Z,-24.09
2022-12-23T03:03:17.958Z,-24.04
2022-12-23T03:06:31.103Z,-24.02
2022-12-23T03:09:46.128Z,-23.96
2022-12-23T03:13:20.023Z,-23.90
2022-12-23T03:16:42.703Z,-23.82
2022-12-23T03:19:59.717Z,-23.73
2022-12-23T03:23:31.260Z,-23.62
2022-12-23T03:26:37.139Z,-23.52
2022-12-23T03:29:49.118Z,-23.40
2022-12-23T03:32:55.403Z,-23.29
2022-12-23T03:36:17.478Z,-23.19
2022-12-23T03:39:26.460Z,-23.06
2022-12-23T03:42:45.821Z,-22.96
2022-12-23T03:46:04.259Z,-22.90
2022-12-23T03:49:12.546Z,-22.85
2022-12-23T03:52:21.681Z,-22.82
2022-12-23T03:55:33.933Z,-22.73
2022-12-23T03:58:42.797Z,-22.64
2022-12-23T04:02:04.035Z,-22.57
2022-12-23T04:05:32.335Z,-22.44
2022-12-23T04:08:38.158Z,-22.33
2022-12-23T04:11:41.590Z,-22.28
2022-12-23T04:14:49.586Z,-22.19
2022-12-23T04:17:54.051Z,-22.10
2022-12-23T04:20:57.255Z,-21.97
2022-12-23T04:24:00.395Z,-21.85
2022-12-23T04:27:04.007Z,-21.78
2022-12-23T04:30:11.500Z,-21.69
2022-12-23T04:33:17.628Z,-21.59
2022-12-23T04:36:20.765Z,-21.55
2022-12-23T04:39:24.044Z,-21.52
2022-12-23T04:42:27.172Z,-21.44
2022-12-23T04:45:30.242Z,-21.36
2022-12-23T04:48:33.275Z,-21.29
2022-12-23T04:51:37.001Z,-21.28
2022-12-23T04:54:45.762Z,-21.28
2022-12-23T04:57:50.028Z,-21.22
2022-12-23T05:01:06.043Z,-21.10
2022-12-23T05:04:10.553Z,-21.12
2022-12-23T05:07:13.637Z,-21.23
2022-12-23T05:10:16.837Z,-21.24
2022-12-23T05:13:20.269Z,-21.17
2022-12-23T05:16:23.787Z,-21.02
2022-12-23T05:19:26.906Z,-20.90
2022-12-23T05:22:30.048Z,-20.90
2022-12-23T05:25:37.560Z,-20.89
2022-12-23T05:28:40.718Z,-20.77
2022-12-23T05:31:44.673Z,-20.65
2022-12-23T05:34:48.019Z,-20.57
2022-12-23T05:37:51.363Z,-20.58
2022-12-23T05:40:54.891Z,-20.49
2022-12-23T05:43:58.092Z,-20.35
2022-12-23T05:47:01.230Z,-20.17
2022-12-23T05:50:05.062Z,-19.97
2022-12-23T05:53:08.517Z,-19.89
2022-12-23T05:56:11.564Z,-19.85
2022-12-23T05:59:14.614Z,-19.70
2022-12-23T06:02:17.905Z,-19.52
2022-12-23T06:05:21.562Z,-19.51
2022-12-23T06:08:24.668Z,-19.46
2022-12-23T06:11:28.378Z,-19.42
2022-12-23T06:14:31.479Z,-19.45
2022-12-23T06:17:34.753Z,-19.41
2022-12-23T06:20:38.159Z,-19.37
2022-12-23T06:23:41.217Z,-19.34
2022-12-23T06:26:44.369Z,-19.48
2022-12-23T06:29:47.495Z,-19.58
2022-12-23T06:32:51.135Z,-19.55
2022-12-23T06:35:55.001Z,-19.50
2022-12-23T06:38:58.525Z,-19.46
2022-12-23T06:42:01.752Z,-19.45
2022-12-23T06:45:05.142Z,-19.29
2022-12-23T06:48:08.453Z,-19.32
2022-12-23T06:51:12.163Z,-19.29
2022-12-23T06:54:15.358Z,-19.31
2022-12-23T06:57:18.645Z,-19.11
2022-12-23T07:00:21.841Z,-18.86
2022-12-23T07:03:25.103Z,-18.67
2022-12-23T07:06:28.285Z,-18.66
2022-12-23T07:09:31.477Z,-18.62
2022-12-23T07:12:34.775Z,-18.61
2022-12-23T07:15:38.904Z,-18.73
2022-12-23T07:18:45.287Z,-18.84
2022-12-23T07:21:48.394Z,-18.87
2022-12-23T07:24:51.416Z,-18.86
2022-12-23T07:27:57.878Z,-18.87
2022-12-23T07:31:01.159Z,-18.91
2022-12-23T07:34:04.368Z,-18.93
2022-12-23T07:37:07.453Z,-19.00
2022-12-23T07:40:11.526Z,-19.07
2022-12-23T07:43:14.752Z,-19.15
2022-12-23T07:46:17.949Z,-19.25
2022-12-23T07:49:21.131Z,-19.32
2022-12-23T07:52:24.256Z,-19.43
2022-12-23T07:55:27.728Z,-19.55
2022-12-23T07:58:30.841Z,-19.62
2022-12-23T08:01:34.045Z,-19.68
2022-12-23T08:04:42.566Z,-19.57
2022-12-23T08:07:50.567Z,-19.36
2022-12-23T08:10:59.058Z,-19.28
2022-12-23T08:14:02.149Z,-19.16
2022-12-23T08:17:05.603Z,-19.04
2022-12-23T08:20:09.424Z,-18.94
2022-12-23T08:23:12.845Z,-19.15
2022-12-23T08:26:18.916Z,-19.43
2022-12-23T08:29:22.043Z,-19.66
2022-12-23T08:32:28.043Z,-19.88
2022-12-23T08:35:31.565Z,-20.06
2022-12-23T08:38:35.175Z,-20.22
2022-12-23T08:41:41.717Z,-20.27
2022-12-23T08:44:44.917Z,-20.23
2022-12-23T08:47:48.023Z,-20.23
2022-12-23T08:50:51.217Z,-20.34
2022-12-23T08:54:00.847Z,-20.36
2022-12-23T08:57:04.645Z,-20.36
2022-12-23T09:00:08.431Z,-20.43
2022-12-23T09:03:11.725Z,-20.48
2022-12-23T09:06:24.700Z,-20.56
2022-12-23T09:09:31.533Z,-20.66
2022-12-23T09:12:34.741Z,-20.70
2022-12-23T09:15:45.059Z,-20.72
2022-12-23T09:18:48.225Z,-20.69
2022-12-23T09:21:51.527Z,-20.73
2022-12-23T09:25:01.247Z,-20.75
2022-12-23T09:28:08.095Z,-20.72
2022-12-23T09:31:13.153Z,-20.89
2022-12-23T09:34:16.356Z,-21.00
2022-12-23T09:37:19.480Z,-21.06
2022-12-23T09:40:23.871Z,-21.05
2022-12-23T09:43:39.664Z,-20.98
2022-12-23T09:46:54.880Z,-20.88
2022-12-23T09:50:04.333Z,-20.83
2022-12-23T09:53:20.283Z,-20.71
2022-12-23T09:56:37.223Z,-20.82
2022-12-23T10:00:12.926Z,-21.03
2022-12-23T10:03:25.388Z,-21.17
2022-12-23T10:06:30.257Z,-21.39
2022-12-23T10:09:38.722Z,-21.52
2022-12-23T10:12:45.811Z,-21.67
2022-12-23T10:15:52.793Z,-21.68
2022-12-23T10:19:21.794Z,-21.50
2022-12-23T10:22:33.141Z,-21.32
2022-12-23T10:25:41.587Z,-21.26
2022-12-23T10:28:44.622Z,-21.30
2022-12-23T10:32:12.708Z,-21.27
2022-12-23T10:35:42.846Z,-21.36
2022-12-23T10:38:57.575Z,-21.37
2022-12-23T10:42:56.011Z,-21.27
2022-12-23T10:46:26.297Z,-21.37
2022-12-23T10:50:02.423Z,-21.68
2022-12-23T10:53:11.573Z,-21.80
2022-12-23T10:56:15.123Z,-21.62
2022-12-23T10:59:27.219Z,-21.49
2022-12-23T11:02:44.298Z,-21.38
2022-12-23T11:05:50.497Z,-21.34
2022-12-23T11:08:54.223Z,-21.33
2022-12-23T11:12:09.433Z,-21.32
2022-12-23T11:15:37.820Z,-21.30
2022-12-23T11:18:57.283Z,-21.20
2022-12-23T11:22:02.093Z,-21.18
2022-12-23T11:25:28.441Z,-21.31
2022-12-23T11:28:33.322Z,-21.30
2022-12-23T11:31:37.311Z,-21.29
2022-12-23T11:34:44.917Z,-21.36
2022-12-23T11:37:48.175Z,-21.63
2022-12-23T11:40:51.961Z,-21.87
2022-12-23T11:44:06.058Z,-21.98
2022-12-23T11:47:35.603Z,-21.92
2022-12-23T11:50:41.993Z,-21.91
2022-12-23T11:53:45.665Z,-22.08
2022-12-23T11:56:50.533Z,-22.01
2022-12-23T12:00:00.947Z,-21.82
2022-12-23T12:03:06.049Z,-21.69
2022-12-23T12:06:14.750Z,-21.63
2022-12-23T12:09:18.496Z,-21.61
2022-12-23T12:12:23.032Z,-21.51
2022-12-23T12:15:58.346Z,-21.55
2022-12-23T12:19:26.818Z,-21.70
2022-12-23T12:23:02.395Z,-21.81
2022-12-23T12:26:18.530Z,-21.81
2022-12-23T12:29:27.445Z,-22.01
2022-12-23T12:32:44.328Z,-22.11
2022-12-23T12:36:01.725Z,-22.10
2022-12-23T12:39:30.692Z,-22.18
2022-12-23T12:42:49.790Z,-22.50
2022-12-23T12:46:19.542Z,-22.70
2022-12-23T12:49:29.886Z,-22.75
2022-12-23T12:52:39.902Z,-22.62
2022-12-23T12:55:49.676Z,-22.42
2022-12-23T12:58:52.884Z,-22.19
2022-12-23T13:02:29.992Z,-22.04
2022-12-23T13:05:38.600Z,-21.94
2022-12-23T13:09:01.807Z,-21.91
2022-12-23T13:12:18.547Z,-21.99
2022-12-23T13:15:21.657Z,-22.01
2022-12-23T13:18:54.807Z,-22.06
2022-12-23T13:22:16.401Z,-21.99
2022-12-23T13:25:25.144Z,-21.97
2022-12-23T13:29:18.774Z,-21.91
2022-12-23T13:32:21.960Z,-21.91
2022-12-23T13:35:37.133Z,-21.84
2022-12-23T13:38:42.998Z,-22.01
2022-12-23T13:41:49.987Z,-22.16
2022-12-23T13:44:53.760Z,-22.27
2022-12-23T13:48:34.058Z,-22.42
2022-12-23T13:51:49.460Z,-22.27
2022-12-23T13:55:17.449Z,-22.14
2022-12-23T13:58:23.411Z,-22.05
2022-12-23T14:01:48.420Z,-21.92
2022-12-23T14:04:59.498Z,-21.99
2022-12-23T14:08:24.865Z,-22.02
2022-12-23T14:11:29.444Z,-21.98
2022-12-23T14:14:32.821Z,-22.20
2022-12-23T14:17:52.813Z,-22.33
2022-12-23T14:21:14.563Z,-22.18
2022-12-23T14:24:55.034Z,-22.06
2022-12-23T14:28:31.512Z,-22.05
2022-12-23T14:31:43.931Z,-22.08
2022-12-23T14:35:22.621Z,-22.15
2022-12-23T14:38:31.783Z,-22.28
2022-12-23T14:41:50.736Z,-22.18
2022-12-23T14:44:54.134Z,-22.13
2022-12-23T14:47:57.388Z,-22.16
2022-12-23T14:51:05.219Z,-22.44
2022-12-23T14:54:08.353Z,-22.60
2022-12-23T14:57:20.067Z,-22.59
2022-12-23T15:00:23.400Z,-22.47
2022-12-23T15:03:27.358Z,-22.32
2022-12-23T15:06:40.742Z,-22.23
2022-12-23T15:10:00.479Z,-22.21
2022-12-23T15:13:06.997Z,-22.20
2022-12-23T15:16:17.181Z,-22.19
2022-12-23T15:19:27.980Z,-22.19
2022-12-23T15:22:34.037Z,-22.25
2022-12-23T15:25:42.220Z,-22.32
2022-12-23T15:28:45.428Z,-22.56
2022-12-23T15:31:54.903Z,-22.65
2022-12-23T15:35:04.437Z,-22.74
2022-12-23T15:38:07.944Z,-22.72
2022-12-23T15:41:19.139Z,-22.63
2022-12-23T15:44:25.508Z,-22.55
2022-12-23T15:47:39.211Z,-22.46
2022-12-23T15:50:42.795Z,-22.43
2022-12-23T15:53:47.717Z,-22.39
2022-12-23T15:56:54.006Z,-22.39
2022-12-23T15:59:58.919Z,-22.45
2022-12-23T16:03:04.705Z,-22.46
2022-12-23T16:06:35.223Z,-22.48
2022-12-23T16:09:38.420Z,-22.50
2022-12-23T16:12:43.079Z,-22.51
2022-12-23T16:15:47.110Z,-22.57
2022-12-23T16:18:50.264Z,-22.59
2022-12-23T16:21:53.429Z,-22.50
2022-12-23T16:25:13.192Z,-22.43
2022-12-23T16:28:23.617Z,-22.41
2022-12-23T16:31:26.951Z,-22.36
2022-12-23T16:34:32.574Z,-22.37
2022-12-23T16:37:35.686Z,-22.44
2022-12-23T16:40:39.056Z,-22.51
2022-12-23T16:43:49.562Z,-22.63
2022-12-23T16:46:54.843Z,-22.72
2022-12-23T16:49:57.922Z,-22.66
2022-12-23T16:53:01.025Z,-22.56
2022-12-23T16:56:10.673Z,-22.66
2022-12-23T16:59:14.531Z,-22.70
2022-12-23T17:02:30.648Z,-22.86
2022-12-23T17:05:34.144Z,-23.24
2022-12-23T17:08:36.896Z,-23.28
2022-12-23T17:11:44.429Z,-23.12
2022-12-23T17:14:47.497Z,-23.15
2022-12-23T17:17:51.883Z,-23.24
2022-12-23T17:20:55.071Z,-23.20
2022-12-23T17:24:12.935Z,-23.06
2022-12-23T17:27:18.601Z,-22.92
2022-12-23T17:30:26.010Z,-22.76
2022-12-23T17:33:31.169Z,-22.74
2022-12-23T17:36:34.327Z,-22.78
2022-12-23T17:39:37.402Z,-22.84
2022-12-23T17:42:41.082Z,-22.97
2022-12-23T17:45:45.793Z,-23.03
2022-12-23T17:48:49.032Z,-23.07
2022-12-23T17:51:52.135Z,-23.09
2022-12-23T17:54:56.716Z,-23.02
2022-12-23T17:57:59.906Z,-22.89
2022-12-23T18:01:03.092Z,-22.90
2022-12-23T18:04:06.292Z,-23.20
2022-12-23T18:07:11.768Z,-23.41
2022-12-23T18:10:17.820Z,-23.46
2022-12-23T18:13:22.110Z,-23.40
2022-12-23T18:16:25.347Z,-23.27
2022-12-23T18:19:28.427Z,-23.12
2022-12-23T18:22:31.883Z,-22.98
2022-12-23T18:25:34.977Z,-22.94
2022-12-23T18:28:38.012Z,-23.27
2022-12-23T18:31:51.022Z,-23.81
2022-12-23T18:34:55.889Z,-24.13
2022-12-23T18:38:00.314Z,-24.21
2022-12-23T18:41:03.444Z,-23.92
2022-12-23T18:44:06.508Z,-23.65
2022-12-23T18:47:10.403Z,-23.46
2022-12-23T18:50:13.533Z,-23.27
2022-12-23T18:53:23.822Z,-23.13
2022-12-23T18:56:27.570Z,-23.02
2022-12-23T18:59:33.455Z,-23.14
2022-12-23T19:02:36.698Z,-23.26
2022-12-23T19:05:39.927Z,-23.36
2022-12-23T19:08:44.132Z,-23.42
2022-12-23T19:11:48.958Z,-23.48
2022-12-23T19:14:52.161Z,-23.54
2022-12-23T19:17:55.241Z,-23.67
2022-12-23T19:20:58.808Z,-23.79
2022-12-23T19:24:03.125Z,-23.80
2022-12-23T19:27:06.493Z,-23.72
2022-12-23T19:30:14.417Z,-23.58
2022-12-23T19:33:17.868Z,-23.62
2022-12-23T19:36:23.347Z,-23.82
2022-12-23T19:39:27.607Z,-23.82
2022-12-23T19:42:31.234Z,-23.66
2022-12-23T19:45:34.323Z,-23.80
2022-12-23T19:48:38.184Z,-24.19
2022-12-23T19:51:41.222Z,-24.20
2022-12-23T19:54:44.333Z,-24.08
2022-12-23T19:57:47.441Z,-24.11
2022-12-23T20:00:50.557Z,-24.38
2022-12-23T20:03:56.297Z,-24.37
2022-12-23T20:06:59.368Z,-24.30
2022-12-23T20:10:02.524Z,-24.38
2022-12-23T20:13:05.582Z,-24.25
2022-12-23T20:16:09.471Z,-24.06
2022-12-23T20:19:12.512Z,-23.94
2022-12-23T20:22:15.555Z,-23.87
2022-12-23T20:25:18.708Z,-23.98
2022-12-23T20:28:22.140Z,-24.23
2022-12-23T20:31:28.110Z,-24.13
2022-12-23T20:34:38.334Z,-23.94
2022-12-23T20:37:41.613Z,-23.89
2022-12-23T20:40:44.661Z,-23.84
2022-12-23T20:44:02.763Z,-23.78
2022-12-23T20:47:11.384Z,-23.87
2022-12-23T20:50:15.335Z,-23.89
2022-12-23T20:53:18.331Z,-23.88
2022-12-23T20:56:22.843Z,-23.86
2022-12-23T20:59:26.005Z,-23.89
2022-12-23T21:02:29.072Z,-23.88
2022-12-23T21:05:32.203Z,-23.86
2022-12-23T21:08:36.885Z,-23.81
2022-12-23T21:11:43.605Z,-23.79
2022-12-23T21:14:46.772Z,-23.78
2022-12-23T21:17:49.926Z,-23.71
2022-12-23T21:20:53.018Z,-23.71
2022-12-23T21:23:58.266Z,-23.66
2022-12-23T21:27:01.401Z,-23.63
2022-12-23T21:30:04.880Z,-23.60
2022-12-23T21:33:07.764Z,-23.62
2022-12-23T21:36:17.907Z,-23.67
2022-12-23T21:39:22.980Z,-23.66
2022-12-23T21:42:26.078Z,-23.58
2022-12-23T21:45:29.153Z,-23.62
2022-12-23T21:48:34.048Z,-23.69
2022-12-23T21:51:40.801Z,-23.76
2022-12-23T21:54:44.511Z,-23.83
2022-12-23T21:57:48.238Z,-23.86
2022-12-23T22:00:51.776Z,-23.85
2022-12-23T22:03:56.122Z,-23.91
2022-12-23T22:06:59.265Z,-23.88
2022-12-23T22:10:02.371Z,-23.85
2022-12-23T22:13:06.436Z,-23.80
2022-12-23T22:16:11.702Z,-23.81
2022-12-23T22:19:15.464Z,-23.83
2022-12-23T22:22:18.628Z,-23.80
2022-12-23T22:25:22.276Z,-23.77
2022-12-23T22:28:25.402Z,-23.78
2022-12-23T22:31:35.566Z,-23.78
2022-12-23T22:34:38.767Z,-23.81
2022-12-23T22:37:41.872Z,-23.82
2022-12-23T22:40:50.076Z,-23.81
2022-12-23T22:43:53.334Z,-23.81
2022-12-23T22:46:56.517Z,-23.82
2022-12-23T22:49:59.587Z,-23.83
2022-12-23T22:53:02.633Z,-23.85
2022-12-23T22:56:06.628Z,-23.82
2022-12-23T22:59:24.861Z,-23.79
2022-12-23T23:02:28.275Z,-23.74
2022-12-23T23:05:31.568Z,-23.72
2022-12-23T23:08:35.389Z,-23.69
2022-12-23T23:11:38.545Z,-23.69
2022-12-23T23:14:53.728Z,-23.69
2022-12-23T23:17:57.651Z,-23.72
2022-12-23T23:21:01.296Z,-23.72
2022-12-23T23:24:05.692Z,-23.74
2022-12-23T23:27:08.927Z,-23.74
2022-12-23T23:30:12.405Z,-23.74
2022-12-23T23:33:15.658Z,-23.74
2022-12-23T23:36:18.814Z,-23.75
2022-12-23T23:39:21.946Z,-23.65
2022-12-23T23:42:25.041Z,-23.74
2022-12-23T23:45:28.226Z,-23.92
2022-12-23T23:48:31.313Z,-24.13
2022-12-23T23:51:34.355Z,-24.03
2022-12-23T23:54:37.746Z,-23.81
2022-12-23T23:57:40.517Z,-23.62
